Berkhamsted, United Kingdom
Current Conditions -  °F | °C
As of 2:50 PM on Monday 24 Nov 2014 (Local Time) from EGGW Reporting Station
Clear Clear  
Wind Chill: 41°   Ceiling: Unl
Heat Index: 45°   Visibility: 6mi
Dew Point: 39°   Wind: 6mph
Humidity: 81%   Direction: 320°NW
Pressure: 30.3"   Gusts: NA
Location:  51.76°N, 0.57°W
Report Text: EGGW 241450Z 32005KT 280V350 CAVOK 07/04 Q1026
Loading
Personal Weather Stations






























Interactive Weather Map New forecast layout! Learn more

10-Day Weather Forecast

Advertisements
Track Severe Weather on mobile